Time;durP1;ratioP1;P1;durP2;ratioP2;P2;SDS_P1;SDS_P2;PMS_P1;PMS_P2;Temp;Humidity;BMP_temperature;BMP_pressure;BME280_temperature;BME280_humidity;BME280_pressure;Samples;Min_cycle;Max_cycle;Signal;HPM_P1;HPM_P2
2023/01/08 00:01:34;;;;;;;9.20;6.05;;;9.60;99.90;;;;;;5027333;28;20026;-57
2023/01/08 00:04:01;;;;;;;7.10;5.57;;;9.70;99.90;;;;;;5026868;28;20028;-56
2023/01/08 00:06:26;;;;;;;6.60;5.75;;;9.70;99.90;;;;;;5027331;28;20152;-56
2023/01/08 00:08:52;;;;;;;6.32;5.25;;;9.80;99.90;;;;;;5027161;28;20606;-49
2023/01/08 00:11:18;;;;;;;6.32;5.32;;;9.80;99.90;;;;;;5027276;28;20053;-55
2023/01/08 00:13:43;;;;;;;5.72;4.70;;;9.80;99.90;;;;;;5025576;28;20030;-57
2023/01/08 00:16:12;;;;;;;4.65;4.22;;;9.90;99.90;;;;;;5029013;28;20036;-53
2023/01/08 00:18:37;;;;;;;5.47;4.68;;;9.90;99.90;;;;;;5030378;28;20038;-53
2023/01/08 00:21:03;;;;;;;6.25;4.55;;;9.90;99.90;;;;;;5030681;28;20034;-55
2023/01/08 00:23:29;;;;;;;6.72;5.43;;;10.00;99.90;;;;;;5030034;28;20026;-55
2023/01/08 00:25:55;;;;;;;8.52;5.10;;;10.00;99.90;;;;;;5033700;28;20028;-52
2023/01/08 00:28:21;;;;;;;7.18;5.15;;;10.00;99.90;;;;;;5034367;28;20064;-54
2023/01/08 00:30:47;;;;;;;7.32;5.22;;;10.00;99.90;;;;;;5034196;28;20071;-51
2023/01/08 00:33:13;;;;;;;5.43;4.93;;;9.90;99.90;;;;;;5015799;28;20493;-55
2023/01/08 00:35:38;;;;;;;6.07;4.88;;;9.90;99.90;;;;;;5034140;28;20210;-54
2023/01/08 00:38:04;;;;;;;6.15;4.97;;;9.90;99.90;;;;;;5034001;28;20437;-57
2023/01/08 00:40:30;;;;;;;7.57;5.80;;;9.90;99.90;;;;;;5034211;28;20030;-54
2023/01/08 00:42:55;;;;;;;7.93;5.40;;;9.90;99.90;;;;;;5033464;28;20071;-53
2023/01/08 00:45:21;;;;;;;6.50;5.40;;;9.90;99.90;;;;;;5034155;28;20021;-54
2023/01/08 00:47:47;;;;;;;7.22;5.80;;;9.90;99.90;;;;;;5033829;28;20033;-56
2023/01/08 00:50:12;;;;;;;6.63;5.60;;;9.90;99.90;;;;;;5016210;28;20058;-56
2023/01/08 00:52:38;;;;;;;14.52;6.00;;;9.90;99.90;;;;;;5015504;28;20362;-55
2023/01/08 00:55:04;;;;;;;6.40;5.47;;;9.80;99.90;;;;;;5016004;28;20029;-56
2023/01/08 00:57:37;;;;;;;7.75;5.78;;;9.80;99.90;;;;;;5033808;28;20033;-54
2023/01/08 01:00:05;;;;;;;8.73;6.30;;;9.70;99.90;;;;;;5033658;28;20053;-55
2023/01/08 01:02:33;;;;;;;8.60;6.53;;;9.70;99.90;;;;;;5033028;28;20508;-56
2023/01/08 01:04:58;;;;;;;8.25;6.40;;;9.60;99.90;;;;;;5033836;28;20108;-56
2023/01/08 01:07:24;;;;;;;6.97;5.88;;;9.60;99.90;;;;;;5033465;28;20139;-57
2023/01/08 01:09:49;;;;;;;6.88;5.57;;;9.70;99.90;;;;;;5033642;28;20018;-57
2023/01/08 01:12:15;;;;;;;7.13;6.43;;;9.60;99.90;;;;;;5032685;28;20036;-55
2023/01/08 01:14:41;;;;;;;6.93;5.25;;;9.70;99.90;;;;;;5033754;28;20084;-56
2023/01/08 01:17:06;;;;;;;6.72;6.03;;;9.70;99.90;;;;;;5034695;28;20505;-57
2023/01/08 01:19:32;;;;;;;7.68;5.50;;;9.70;99.90;;;;;;5033125;28;20022;-57
2023/01/08 01:21:58;;;;;;;8.05;6.05;;;9.70;99.90;;;;;;5032535;28;20032;-56
2023/01/08 01:24:24;;;;;;;8.43;5.40;;;9.70;99.90;;;;;;5032087;28;20040;-56
2023/01/08 01:26:50;;;;;;;7.03;6.32;;;9.70;99.90;;;;;;5033230;28;20030;-55
2023/01/08 01:29:16;;;;;;;10.40;6.13;;;9.70;99.90;;;;;;5015307;28;20021;-52
2023/01/08 01:31:42;;;;;;;7.22;5.93;;;9.70;99.90;;;;;;5033018;28;20436;-54
2023/01/08 01:34:11;;;;;;;6.55;5.88;;;9.70;99.90;;;;;;5032379;28;20025;-50
2023/01/08 01:36:36;;;;;;;7.22;6.05;;;9.70;99.90;;;;;;5032540;28;20036;-49
2023/01/08 01:39:02;;;;;;;8.07;6.05;;;9.70;99.90;;;;;;5032828;28;20342;-54
2023/01/08 01:41:36;;;;;;;7.88;5.70;;;9.70;99.90;;;;;;5032818;28;20114;-51
2023/01/08 01:44:34;;;;;;;7.47;6.25;;;9.70;99.90;;;;;;5032075;28;20030;-52
2023/01/08 01:47:04;;;;;;;7.13;5.68;;;9.70;99.90;;;;;;5032921;28;20033;-51
2023/01/08 01:49:31;;;;;;;8.00;6.45;;;9.70;99.90;;;;;;5032668;28;20112;-51
2023/01/08 01:52:01;;;;;;;9.05;5.72;;;9.70;99.90;;;;;;5032014;28;20079;-54
2023/01/08 01:54:28;;;;;;;9.60;7.25;;;9.70;99.90;;;;;;5032983;28;20497;-56
2023/01/08 01:56:55;;;;;;;7.60;6.15;;;9.70;99.90;;;;;;5032870;28;20041;-51
2023/01/08 01:59:20;;;;;;;8.27;5.82;;;9.60;99.90;;;;;;5032478;28;20022;-50
2023/01/08 02:01:46;;;;;;;7.15;5.75;;;9.60;99.90;;;;;;5032417;28;20036;-53
2023/01/08 02:04:12;;;;;;;7.57;5.85;;;9.60;99.90;;;;;;5032583;28;20031;-54
2023/01/08 02:07:13;;;;;;;12.02;6.75;;;9.50;99.90;;;;;;5032762;28;20148;-52
2023/01/08 02:09:46;;;;;;;8.32;6.40;;;9.50;99.90;;;;;;4989981;28;20034;-53
2023/01/08 02:12:18;;;;;;;7.43;5.88;;;9.50;99.90;;;;;;5031572;28;20021;-56
2023/01/08 02:14:51;;;;;;;10.05;6.07;;;9.50;99.90;;;;;;5014394;28;20032;-56
2023/01/08 02:17:26;;;;;;;8.82;6.82;;;9.50;99.90;;;;;;5032453;28;20017;-51
2023/01/08 02:19:58;;;;;;;11.70;6.97;;;9.40;99.90;;;;;;5032362;28;20037;-52
2023/01/08 02:22:45;;;;;;;9.77;7.63;;;9.40;99.90;;;;;;5031249;28;20124;-52
2023/01/08 02:25:33;;;;;;;8.30;6.68;;;9.40;99.90;;;;;;5030567;28;20025;-55
2023/01/08 02:28:01;;;;;;;11.15;7.43;;;9.40;99.90;;;;;;5031867;28;20025;-55
2023/01/08 02:30:27;;;;;;;10.40;7.47;;;9.40;99.90;;;;;;5014215;28;20032;-50
2023/01/08 02:32:52;;;;;;;9.85;7.50;;;9.30;99.90;;;;;;5031214;28;20025;-55
2023/01/08 02:35:18;;;;;;;7.70;6.93;;;9.30;99.90;;;;;;5013983;28;20025;-55
2023/01/08 02:37:43;;;;;;;7.90;6.82;;;9.20;99.90;;;;;;5013978;28;20029;-54
2023/01/08 02:40:28;;;;;;;11.18;7.43;;;9.20;99.90;;;;;;5031588;28;20022;-57
2023/01/08 02:43:05;;;;;;;8.20;7.18;;;9.20;99.90;;;;;;5031140;28;20025;-52
2023/01/08 02:45:45;;;;;;;8.32;6.93;;;9.10;99.90;;;;;;5032552;28;20033;-53
2023/01/08 02:48:35;;;;;;;11.75;8.73;;;9.10;99.90;;;;;;5031331;28;20402;-56
2023/01/08 02:51:10;;;;;;;9.60;7.05;;;9.00;99.90;;;;;;5031755;28;20072;-57
2023/01/08 02:53:40;;;;;;;14.25;8.35;;;9.00;99.90;;;;;;5031174;28;20392;-56
2023/01/08 02:56:12;;;;;;;11.15;8.05;;;9.00;99.90;;;;;;5031572;28;20018;-50
2023/01/08 02:58:40;;;;;;;10.70;8.50;;;9.00;99.90;;;;;;5013598;28;20036;-53
2023/01/08 03:01:09;;;;;;;11.15;7.97;;;9.00;99.90;;;;;;5031619;28;20368;-51
2023/01/08 03:03:37;;;;;;;9.85;8.57;;;8.90;99.90;;;;;;5030789;28;20025;-54
2023/01/08 03:06:16;;;;;;;14.60;9.23;;;8.90;99.90;;;;;;5031386;28;20034;-57
2023/01/08 03:08:45;;;;;;;10.75;7.80;;;8.90;99.90;;;;;;5031492;28;20030;-54
2023/01/08 03:11:12;;;;;;;11.85;8.52;;;8.90;99.90;;;;;;5031665;28;20446;-50
2023/01/08 03:13:49;;;;;;;10.70;8.77;;;8.90;99.90;;;;;;5030340;28;20034;-51
2023/01/08 03:16:20;;;;;;;11.63;7.82;;;8.80;99.90;;;;;;5031255;28;20420;-55
2023/01/08 03:18:53;;;;;;;11.27;8.45;;;8.80;99.90;;;;;;5031190;28;20032;-52
2023/01/08 03:21:21;;;;;;;10.68;8.73;;;8.80;99.90;;;;;;5031258;28;20076;-53
2023/01/08 03:23:49;;;;;;;12.35;8.73;;;8.70;99.90;;;;;;5028755;28;20405;-54
2023/01/08 03:26:20;;;;;;;11.60;8.50;;;8.80;99.90;;;;;;5031075;28;20048;-53
2023/01/08 03:28:50;;;;;;;11.57;8.30;;;8.80;99.90;;;;;;5031547;28;20469;-51
2023/01/08 03:31:17;;;;;;;9.23;7.90;;;8.80;99.90;;;;;;5030995;28;20032;-54
2023/01/08 03:33:45;;;;;;;12.63;7.68;;;8.80;99.90;;;;;;5030347;28;20029;-51
2023/01/08 03:36:17;;;;;;;10.35;8.10;;;8.80;99.90;;;;;;5030783;28;20022;-51
2023/01/08 03:38:50;;;;;;;11.35;7.82;;;8.80;99.90;;;;;;5031087;28;20397;-48
2023/01/08 03:41:19;;;;;;;9.57;8.50;;;8.80;99.90;;;;;;5030945;28;20113;-57
2023/01/08 03:43:45;;;;;;;11.05;7.63;;;8.80;99.90;;;;;;5030173;28;20125;-57
2023/01/08 03:46:15;;;;;;;9.50;8.27;;;8.80;99.90;;;;;;5030940;28;20061;-57
2023/01/08 03:48:42;;;;;;;8.85;7.63;;;8.90;99.90;;;;;;5030837;28;20444;-56
2023/01/08 03:51:09;;;;;;;9.40;8.00;;;8.80;99.90;;;;;;5013375;28;20029;-56
2023/01/08 03:53:35;;;;;;;12.43;7.70;;;8.80;99.90;;;;;;5030262;28;20049;-51
2023/01/08 03:56:00;;;;;;;16.88;7.97;;;8.80;99.90;;;;;;5030858;28;20461;-52
2023/01/08 03:58:26;;;;;;;8.65;7.22;;;8.90;99.90;;;;;;5030899;28;20087;-52
2023/01/08 04:00:51;;;;;;;8.93;7.32;;;8.90;99.90;;;;;;5034678;28;20022;-55
2023/01/08 04:03:17;;;;;;;9.10;7.30;;;8.90;99.90;;;;;;5033960;28;20025;-56
2023/01/08 04:05:42;;;;;;;12.43;7.68;;;8.90;99.90;;;;;;5034376;28;20032;-54
2023/01/08 04:08:08;;;;;;;8.93;7.53;;;8.90;99.90;;;;;;5034836;28;20053;-51
2023/01/08 04:10:33;;;;;;;11.10;7.95;;;9.00;99.90;;;;;;5034421;28;20033;-54
2023/01/08 04:12:59;;;;;;;8.52;7.30;;;9.00;99.90;;;;;;5016029;28;20401;-55
2023/01/08 04:15:24;;;;;;;9.88;8.32;;;9.00;99.90;;;;;;5034495;28;20026;-52
2023/01/08 04:17:50;;;;;;;7.97;7.00;;;9.00;99.90;;;;;;5034624;28;20026;-54
2023/01/08 04:20:15;;;;;;;9.95;8.13;;;9.00;99.90;;;;;;5034462;28;20018;-54
2023/01/08 04:22:41;;;;;;;8.38;7.15;;;9.00;99.90;;;;;;5033939;28;20060;-51
2023/01/08 04:25:07;;;;;;;10.35;7.22;;;9.00;99.90;;;;;;5032531;28;20485;-55
2023/01/08 04:27:32;;;;;;;9.80;8.05;;;9.00;99.90;;;;;;5034387;28;20079;-55
2023/01/08 04:29:58;;;;;;;8.90;7.68;;;8.90;99.90;;;;;;5034478;28;20040;-55
2023/01/08 04:32:23;;;;;;;9.77;7.93;;;8.90;99.90;;;;;;5033650;28;20109;-57
2023/01/08 04:34:49;;;;;;;9.48;7.78;;;9.00;99.90;;;;;;5034287;28;20088;-55
2023/01/08 04:37:14;;;;;;;9.93;7.93;;;9.00;99.90;;;;;;5034107;28;20029;-54
2023/01/08 04:39:40;;;;;;;11.98;8.07;;;8.90;99.90;;;;;;5034066;28;20116;-51
2023/01/08 04:42:05;;;;;;;9.52;7.75;;;9.00;99.90;;;;;;5033166;28;20435;-55
2023/01/08 04:44:31;;;;;;;11.50;8.82;;;9.00;99.90;;;;;;5033847;28;20037;-52
2023/01/08 04:46:56;;;;;;;13.20;8.40;;;9.00;99.90;;;;;;5034158;28;20486;-51
2023/01/08 04:49:22;;;;;;;10.32;8.43;;;8.90;99.90;;;;;;5034035;28;20038;-54
2023/01/08 04:51:47;;;;;;;8.60;7.70;;;9.00;99.90;;;;;;5033551;28;20516;-51
2023/01/08 04:54:13;;;;;;;9.38;7.45;;;8.90;99.90;;;;;;5033412;28;20037;-56
2023/01/08 04:56:38;;;;;;;13.13;7.80;;;8.90;99.90;;;;;;5033570;28;20025;-53
2023/01/08 04:59:04;;;;;;;9.45;7.40;;;8.90;99.90;;;;;;5033581;28;20104;-55
2023/01/08 05:01:29;;;;;;;9.05;7.95;;;8.90;99.90;;;;;;5033560;28;20029;-50
2023/01/08 05:04:00;;;;;;;13.80;8.50;;;8.90;99.90;;;;;;5032982;28;20092;-51
2023/01/08 05:06:28;;;;;;;10.23;8.23;;;8.90;99.90;;;;;;5033631;28;20026;-53
2023/01/08 05:08:53;;;;;;;11.25;7.72;;;8.90;99.90;;;;;;5033910;28;20033;-54
2023/01/08 05:11:19;;;;;;;9.50;7.35;;;8.90;99.90;;;;;;5033199;28;20534;-53
2023/01/08 05:13:49;;;;;;;9.20;7.50;;;8.90;99.90;;;;;;5032610;28;20026;-53
2023/01/08 05:16:16;;;;;;;10.77;7.55;;;8.90;99.90;;;;;;5033534;28;20029;-51
2023/01/08 05:18:43;;;;;;;8.25;6.65;;;8.80;99.90;;;;;;5033238;28;20187;-50
2023/01/08 05:21:08;;;;;;;11.98;7.07;;;8.80;99.90;;;;;;5033077;28;20029;-50
2023/01/08 05:23:34;;;;;;;10.27;6.82;;;8.80;99.90;;;;;;5030873;28;20030;-53
2023/01/08 05:26:01;;;;;;;13.15;7.38;;;8.80;99.90;;;;;;5032940;28;20497;-53
2023/01/08 05:28:28;;;;;;;12.65;7.40;;;8.80;99.90;;;;;;5015515;28;20022;-55
2023/01/08 05:30:54;;;;;;;8.07;7.28;;;8.80;99.90;;;;;;5033058;28;20480;-51
2023/01/08 05:33:19;;;;;;;8.40;7.53;;;8.90;99.90;;;;;;5032323;28;20053;-52
2023/01/08 05:35:45;;;;;;;9.95;7.15;;;8.90;99.90;;;;;;5033117;28;20155;-55
2023/01/08 05:38:10;;;;;;;8.13;6.68;;;8.90;99.90;;;;;;5015117;28;20029;-56
2023/01/08 05:40:36;;;;;;;7.70;6.90;;;8.90;99.90;;;;;;5032961;28;20029;-54
2023/01/08 05:43:04;;;;;;;10.00;7.15;;;8.80;99.90;;;;;;5032174;28;20076;-53
2023/01/08 05:45:29;;;;;;;13.18;6.95;;;8.90;99.90;;;;;;5032967;28;20024;-51
2023/01/08 05:47:55;;;;;;;8.70;7.25;;;8.90;99.90;;;;;;5032876;28;20021;-52
2023/01/08 05:50:20;;;;;;;9.63;7.55;;;8.90;99.90;;;;;;5015130;28;20393;-55
2023/01/08 05:52:46;;;;;;;8.20;6.40;;;8.90;99.90;;;;;;5032001;28;20021;-53
2023/01/08 05:55:11;;;;;;;9.45;6.97;;;8.90;99.90;;;;;;5032889;28;20643;-52
2023/01/08 05:57:37;;;;;;;7.55;6.75;;;8.90;99.90;;;;;;5014887;28;20057;-53
2023/01/08 06:00:05;;;;;;;7.85;6.97;;;8.80;99.90;;;;;;5032665;28;20042;-50
2023/01/08 06:02:31;;;;;;;10.10;7.35;;;8.80;99.90;;;;;;5031883;28;20022;-55
2023/01/08 06:04:56;;;;;;;7.95;6.93;;;8.80;99.90;;;;;;5032543;28;20032;-51
2023/01/08 06:07:22;;;;;;;12.70;6.97;;;8.80;99.90;;;;;;5032047;28;20028;-52
2023/01/08 06:09:47;;;;;;;11.52;7.53;;;8.80;99.90;;;;;;5032455;28;20040;-53
2023/01/08 06:12:12;;;;;;;8.13;7.10;;;8.80;99.90;;;;;;5031761;28;20080;-52
2023/01/08 06:14:38;;;;;;;8.10;6.90;;;8.90;99.90;;;;;;5032457;28;20025;-51
2023/01/08 06:17:03;;;;;;;10.43;7.45;;;8.90;99.90;;;;;;5032292;28;20041;-53
2023/01/08 06:19:29;;;;;;;7.85;6.82;;;8.80;99.90;;;;;;5032125;28;20029;-51
2023/01/08 06:21:55;;;;;;;7.88;7.07;;;8.90;99.90;;;;;;5025038;28;20384;-51
2023/01/08 06:24:20;;;;;;;12.52;6.93;;;8.90;99.90;;;;;;5031102;28;20140;-53
2023/01/08 06:26:46;;;;;;;8.98;6.72;;;8.80;99.90;;;;;;5032027;28;20100;-51
2023/01/08 06:29:11;;;;;;;10.05;8.02;;;8.80;99.90;;;;;;5032228;28;20279;-54
2023/01/08 06:31:37;;;;;;;7.75;6.43;;;8.80;99.90;;;;;;5031815;28;20029;-52
2023/01/08 06:34:02;;;;;;;7.65;6.25;;;8.80;99.90;;;;;;5031194;28;20075;-56
2023/01/08 06:36:28;;;;;;;7.00;5.72;;;8.80;99.90;;;;;;5031807;28;20123;-51
2023/01/08 06:38:54;;;;;;;9.25;6.60;;;8.80;99.90;;;;;;5031975;28;20057;-52
2023/01/08 06:41:20;;;;;;;7.75;6.22;;;8.80;99.90;;;;;;5031730;28;20021;-53
2023/01/08 06:43:46;;;;;;;8.20;5.97;;;8.70;99.90;;;;;;5030982;28;20393;-53
2023/01/08 06:46:11;;;;;;;16.95;5.88;;;8.70;99.90;;;;;;5031658;28;20021;-52
2023/01/08 06:48:37;;;;;;;6.70;5.70;;;8.70;99.90;;;;;;5030289;28;20067;-54
2023/01/08 06:51:04;;;;;;;8.43;5.60;;;8.70;99.90;;;;;;5030238;28;20033;-54
2023/01/08 06:53:29;;;;;;;9.65;5.93;;;8.70;99.90;;;;;;5030643;28;20393;-51
2023/01/08 06:55:57;;;;;;;6.20;5.60;;;8.70;99.90;;;;;;5031271;28;20029;-48
2023/01/08 06:58:24;;;;;;;7.38;5.85;;;8.70;99.90;;;;;;5031545;28;20025;-54
2023/01/08 07:00:49;;;;;;;6.78;5.50;;;8.70;99.90;;;;;;5031905;28;20370;-49
2023/01/08 07:03:15;;;;;;;5.75;5.18;;;8.70;99.90;;;;;;5030901;28;20025;-53
2023/01/08 07:05:40;;;;;;;9.63;5.90;;;8.70;99.90;;;;;;5031420;28;20033;-54
2023/01/08 07:08:09;;;;;;;5.90;5.28;;;8.60;99.90;;;;;;5031611;28;20069;-52
2023/01/08 07:10:34;;;;;;;6.97;5.68;;;8.60;99.90;;;;;;5031688;28;20038;-53
2023/01/08 07:12:59;;;;;;;6.57;5.72;;;8.70;99.90;;;;;;5030783;28;20313;-54
2023/01/08 07:15:25;;;;;;;6.72;6.00;;;8.70;99.90;;;;;;5032693;28;20021;-53
2023/01/08 07:17:50;;;;;;;7.20;5.30;;;8.60;99.90;;;;;;5031542;28;20022;-56
2023/01/08 07:20:16;;;;;;;7.50;5.78;;;8.70;99.90;;;;;;5031968;28;20026;-52
2023/01/08 07:22:41;;;;;;;7.07;5.95;;;8.70;99.90;;;;;;5031111;28;20565;-56
2023/01/08 07:25:07;;;;;;;10.13;6.70;;;8.70;99.90;;;;;;5029983;28;20544;-57
2023/01/08 07:27:33;;;;;;;10.38;6.95;;;8.60;99.90;;;;;;5031295;28;20026;-53
2023/01/08 07:29:58;;;;;;;9.23;6.95;;;8.60;99.90;;;;;;5031263;28;20060;-54
2023/01/08 07:32:24;;;;;;;7.57;6.53;;;8.60;99.90;;;;;;5030151;28;20025;-56
2023/01/08 07:34:49;;;;;;;7.20;6.50;;;8.60;99.90;;;;;;5035636;28;20025;-53
2023/01/08 07:37:15;;;;;;;7.07;6.38;;;8.60;99.90;;;;;;5035209;28;20455;-53
2023/01/08 07:39:40;;;;;;;8.48;7.07;;;8.60;99.90;;;;;;5035367;28;20053;-56
2023/01/08 07:42:06;;;;;;;8.43;6.63;;;8.60;99.90;;;;;;5034508;28;20087;-55
2023/01/08 07:44:31;;;;;;;9.15;6.65;;;8.60;99.90;;;;;;5035354;28;20461;-57
2023/01/08 07:46:57;;;;;;;8.13;6.43;;;8.60;99.90;;;;;;5017428;28;20026;-56
2023/01/08 07:49:22;;;;;;;8.82;7.13;;;8.60;99.90;;;;;;5035097;28;20033;-57
2023/01/08 07:51:48;;;;;;;8.32;7.00;;;8.60;99.90;;;;;;5034770;28;20114;-56
2023/01/08 07:54:14;;;;;;;8.32;7.07;;;8.70;99.90;;;;;;5035034;28;20026;-53
2023/01/08 07:56:39;;;;;;;8.27;6.60;;;8.60;99.90;;;;;;5035258;28;20036;-56
2023/01/08 07:59:05;;;;;;;9.55;7.35;;;8.60;99.90;;;;;;5034752;28;20049;-54
2023/01/08 08:01:30;;;;;;;7.72;6.53;;;8.60;99.90;;;;;;5035044;28;20026;-55
2023/01/08 08:03:56;;;;;;;6.68;5.97;;;8.50;99.90;;;;;;5034234;28;20123;-52
2023/01/08 08:06:21;;;;;;;7.13;6.30;;;8.50;99.90;;;;;;5035052;28;20026;-55
2023/01/08 08:08:47;;;;;;;7.47;6.10;;;8.50;99.90;;;;;;5017217;28;20515;-55
2023/01/08 08:11:12;;;;;;;9.32;6.75;;;8.50;99.90;;;;;;5035240;28;20036;-53
2023/01/08 08:13:41;;;;;;;7.75;6.80;;;8.50;99.90;;;;;;5034054;28;20033;-54
2023/01/08 08:16:07;;;;;;;8.90;6.57;;;8.50;99.90;;;;;;5034738;28;20021;-54
2023/01/08 08:18:32;;;;;;;8.25;6.93;;;8.60;99.90;;;;;;5034589;28;20033;-57
2023/01/08 08:20:58;;;;;;;7.55;6.85;;;8.60;99.90;;;;;;5034363;28;20037;-53
2023/01/08 08:23:24;;;;;;;9.43;6.55;;;8.60;99.90;;;;;;5033864;28;20392;-52
2023/01/08 08:25:50;;;;;;;12.82;7.00;;;8.60;99.90;;;;;;5033589;28;20449;-51
2023/01/08 08:28:16;;;;;;;7.80;6.63;;;8.60;99.90;;;;;;5034612;28;20026;-54
2023/01/08 08:30:41;;;;;;;9.82;5.80;;;8.60;99.90;;;;;;5034463;28;20116;-54
2023/01/08 08:33:07;;;;;;;9.07;6.40;;;8.60;99.90;;;;;;5033919;28;20025;-56
2023/01/08 08:35:33;;;;;;;10.68;6.30;;;8.60;99.90;;;;;;5034576;28;20037;-55
2023/01/08 08:37:59;;;;;;;9.13;6.40;;;8.60;99.90;;;;;;5034506;28;20029;-53
2023/01/08 08:40:25;;;;;;;8.88;7.13;;;8.70;99.90;;;;;;5034101;28;20029;-56
2023/01/08 08:43:01;;;;;;;8.00;6.75;;;8.70;99.90;;;;;;5033428;28;20025;-57
2023/01/08 08:45:28;;;;;;;9.20;6.60;;;8.70;99.90;;;;;;5015804;28;20021;-56
2023/01/08 08:47:54;;;;;;;8.57;6.75;;;8.70;99.90;;;;;;5034117;28;20045;-54
2023/01/08 08:50:20;;;;;;;7.95;6.13;;;8.70;99.90;;;;;;5033950;28;20060;-55
2023/01/08 08:52:47;;;;;;;10.43;6.47;;;8.80;99.90;;;;;;5033239;28;20021;-54
2023/01/08 08:55:16;;;;;;;10.48;6.88;;;8.70;99.90;;;;;;5034139;28;20025;-52
2023/01/08 08:57:42;;;;;;;7.32;6.10;;;8.70;99.90;;;;;;5016517;28;20389;-54
2023/01/08 09:00:08;;;;;;;8.95;6.30;;;8.80;99.90;;;;;;5034438;28;20030;-53
2023/01/08 09:02:34;;;;;;;10.10;7.43;;;8.80;99.90;;;;;;5033333;28;20029;-52
2023/01/08 09:04:59;;;;;;;8.32;6.78;;;8.80;99.90;;;;;;5033542;28;20096;-54
2023/01/08 09:07:25;;;;;;;7.63;6.57;;;8.80;99.90;;;;;;5033805;28;20152;-53
2023/01/08 09:09:50;;;;;;;10.77;7.13;;;8.80;99.90;;;;;;5033806;28;20025;-52
2023/01/08 09:12:17;;;;;;;9.02;6.53;;;8.80;99.90;;;;;;5033339;28;20079;-51
2023/01/08 09:14:42;;;;;;;8.77;7.43;;;8.80;99.90;;;;;;5033687;28;20053;-56
2023/01/08 09:17:08;;;;;;;8.95;6.65;;;8.80;99.90;;;;;;5033805;28;20059;-56
2023/01/08 09:19:33;;;;;;;8.18;7.18;;;8.80;99.90;;;;;;5033784;28;20033;-54
2023/01/08 09:22:01;;;;;;;9.98;7.28;;;8.80;99.90;;;;;;5032654;28;20041;-54
2023/01/08 09:24:26;;;;;;;8.75;7.45;;;8.80;99.90;;;;;;5032301;28;20069;-55
2023/01/08 09:26:53;;;;;;;8.35;7.32;;;8.80;99.90;;;;;;5033505;28;20031;-56
2023/01/08 09:29:19;;;;;;;10.02;6.78;;;8.80;99.90;;;;;;5033359;28;20029;-56
2023/01/08 09:31:45;;;;;;;8.80;6.85;;;8.80;99.90;;;;;;5033409;28;20546;-54
2023/01/08 09:34:11;;;;;;;9.68;6.47;;;8.80;99.90;;;;;;5032648;28;20030;-56
2023/01/08 09:36:37;;;;;;;7.68;6.45;;;8.90;99.90;;;;;;5033885;28;20021;-52
2023/01/08 09:39:02;;;;;;;8.75;7.05;;;8.90;99.90;;;;;;5033039;28;20095;-57
2023/01/08 09:41:32;;;;;;;12.00;8.32;;;8.90;99.90;;;;;;5033267;28;20096;-55
2023/01/08 09:43:59;;;;;;;8.75;6.07;;;8.90;99.90;;;;;;5032445;28;20019;-56
2023/01/08 09:46:27;;;;;;;10.65;6.97;;;8.90;99.90;;;;;;5032781;28;20025;-54
2023/01/08 09:48:59;;;;;;;9.18;6.80;;;8.90;99.90;;;;;;5033188;28;20033;-55
2023/01/08 09:51:33;;;;;;;7.15;6.45;;;8.90;99.90;;;;;;5033261;28;20072;-55
2023/01/08 09:53:59;;;;;;;7.30;5.97;;;8.90;99.90;;;;;;5032542;28;20056;-54
2023/01/08 09:56:25;;;;;;;8.73;6.50;;;9.00;99.90;;;;;;5032924;28;20041;-53
2023/01/08 09:58:54;;;;;;;7.97;6.40;;;8.90;99.90;;;;;;5032766;28;20033;-55
2023/01/08 10:01:26;;;;;;;10.52;6.90;;;9.00;99.90;;;;;;5033830;28;20060;-55
2023/01/08 10:04:10;;;;;;;6.25;5.57;;;9.00;99.90;;;;;;5032101;28;20042;-54
2023/01/08 10:06:36;;;;;;;10.65;7.22;;;8.90;99.90;;;;;;5032682;28;20493;-55
2023/01/08 10:09:01;;;;;;;7.95;6.38;;;9.00;99.90;;;;;;5025779;28;20111;-57
2023/01/08 10:11:35;;;;;;;6.80;5.78;;;9.00;99.90;;;;;;5019834;28;20034;-55
2023/01/08 10:14:00;;;;;;;7.18;5.70;;;8.90;99.90;;;;;;5012116;28;20492;-55
2023/01/08 10:16:32;;;;;;;13.45;6.88;;;8.90;99.90;;;;;;5030706;28;20052;-51
2023/01/08 10:18:58;;;;;;;6.20;5.60;;;8.90;99.90;;;;;;5031669;28;20091;-50
2023/01/08 10:21:30;;;;;;;8.30;6.70;;;8.90;99.90;;;;;;5032336;28;20025;-50
2023/01/08 10:23:56;;;;;;;8.80;7.00;;;9.00;99.90;;;;;;5023922;28;20029;-54
2023/01/08 10:26:27;;;;;;;9.00;6.72;;;9.00;99.90;;;;;;5013582;28;20026;-51
2023/01/08 10:29:14;;;;;;;13.48;7.45;;;9.10;99.90;;;;;;5032025;28;20477;-54
2023/01/08 10:31:52;;;;;;;9.27;7.32;;;9.00;99.90;;;;;;5029429;28;20025;-48
2023/01/08 10:34:30;;;;;;;11.93;8.13;;;9.10;99.90;;;;;;5031603;28;20028;-48
2023/01/08 10:36:55;;;;;;;8.73;7.00;;;9.10;99.90;;;;;;5031582;28;20029;-48
2023/01/08 10:39:27;;;;;;;8.80;7.43;;;9.10;99.90;;;;;;5026245;28;20036;-50
2023/01/08 10:41:56;;;;;;;10.48;7.47;;;9.20;99.90;;;;;;5031500;28;20047;-50
2023/01/08 10:44:24;;;;;;;10.20;8.20;;;9.20;99.90;;;;;;5032084;28;20052;-49
2023/01/08 10:46:54;;;;;;;7.10;6.40;;;9.30;99.90;;;;;;5032174;28;20068;-50
2023/01/08 10:49:32;;;;;;;8.40;6.75;;;9.30;99.90;;;;;;5031852;28;20037;-52
2023/01/08 10:51:58;;;;;;;7.45;6.10;;;9.40;99.90;;;;;;5031028;28;20045;-52
2023/01/08 10:54:34;;;;;;;8.32;7.18;;;9.40;99.90;;;;;;5031793;28;20026;-52
2023/01/08 10:57:00;;;;;;;7.75;6.47;;;9.50;99.90;;;;;;5015516;28;20037;-48
2023/01/08 10:59:26;;;;;;;7.82;5.70;;;9.60;99.90;;;;;;5011960;28;20393;-49
2023/01/08 11:01:55;;;;;;;7.20;6.13;;;9.60;99.90;;;;;;5015715;28;20038;-50
2023/01/08 11:04:33;;;;;;;7.05;5.60;;;9.60;99.90;;;;;;5031257;28;20536;-49
2023/01/08 11:07:04;;;;;;;8.80;6.20;;;9.60;99.90;;;;;;5030657;28;20105;-50
2023/01/08 11:09:39;;;;;;;9.00;5.95;;;9.70;99.90;;;;;;5030665;28;20083;-53
2023/01/08 11:12:35;;;;;;;11.63;5.78;;;9.80;99.90;;;;;;5017698;28;20033;-51
2023/01/08 11:15:04;;;;;;;7.93;5.38;;;10.00;99.90;;;;;;5012031;28;20113;-54
2023/01/08 11:17:31;;;;;;;5.32;4.28;;;10.10;99.90;;;;;;5026150;28;20025;-51
2023/01/08 11:20:07;;;;;;;7.55;5.38;;;10.10;99.90;;;;;;5031584;28;20038;-53
2023/01/08 11:22:32;;;;;;;6.50;4.95;;;10.10;99.90;;;;;;5030656;28;20079;-51
2023/01/08 11:24:58;;;;;;;8.57;5.35;;;10.10;99.90;;;;;;5018395;28;20025;-50
2023/01/08 11:27:39;;;;;;;6.90;5.13;;;10.00;99.90;;;;;;5011398;28;20042;-49
2023/01/08 11:30:13;;;;;;;6.28;5.68;;;10.00;99.90;;;;;;5011574;28;20401;-53
2023/01/08 11:33:00;;;;;;;5.18;4.70;;;10.00;99.90;;;;;;5010630;28;20474;-52
2023/01/08 11:35:29;;;;;;;6.07;5.40;;;9.90;99.90;;;;;;5011573;28;20076;-51
2023/01/08 11:37:58;;;;;;;6.72;5.00;;;9.90;99.90;;;;;;5026654;28;20052;-51
2023/01/08 11:40:39;;;;;;;9.07;4.68;;;9.90;99.90;;;;;;5031113;28;20105;-53
2023/01/08 11:43:42;;;;;;;5.65;4.88;;;9.90;99.90;;;;;;5026433;28;20454;-51
2023/01/08 11:46:44;;;;;;;6.55;5.30;;;9.90;99.90;;;;;;5021515;28;20022;-54
2023/01/08 11:49:50;;;;;;;7.15;5.68;;;10.00;99.90;;;;;;5028723;28;20040;-53
2023/01/08 11:52:21;;;;;;;5.40;4.90;;;10.10;99.90;;;;;;5030269;28;20108;-51
2023/01/08 11:55:04;;;;;;;4.95;4.45;;;10.20;99.90;;;;;;5031886;28;20075;-54
2023/01/08 11:58:09;;;;;;;5.60;5.07;;;10.30;99.90;;;;;;5031429;28;20032;-50
2023/01/08 12:00:53;;;;;;;7.90;5.20;;;10.30;99.90;;;;;;5020047;28;20053;-54
2023/01/08 12:03:18;;;;;;;5.72;4.80;;;10.30;99.90;;;;;;5010531;28;20022;-52
2023/01/08 12:06:00;;;;;;;5.20;4.28;;;10.30;99.90;;;;;;5011224;28;20137;-50
2023/01/08 12:08:51;;;;;;;5.25;4.75;;;10.30;99.90;;;;;;5011034;28;20112;-53
2023/01/08 12:11:26;;;;;;;4.50;3.75;;;10.30;99.90;;;;;;5011275;28;20219;-52
2023/01/08 12:14:20;;;;;;;8.43;5.72;;;10.40;99.90;;;;;;5010597;28;20030;-54
2023/01/08 12:16:51;;;;;;;6.03;4.22;;;10.30;99.90;;;;;;5009595;28;20026;-51
2023/01/08 12:19:42;;;;;;;4.75;4.05;;;10.40;99.90;;;;;;5010751;28;20041;-49
2023/01/08 12:22:26;;;;;;;5.68;3.63;;;10.40;99.90;;;;;;5031153;28;20043;-50
2023/01/08 12:25:17;;;;;;;3.50;3.20;;;10.30;99.90;;;;;;5034336;28;20025;-52
2023/01/08 12:28:20;;;;;;;5.22;3.92;;;10.30;99.90;;;;;;5034490;28;20017;-53
2023/01/08 12:31:10;;;;;;;4.40;2.58;;;10.40;99.90;;;;;;5026859;28;20494;-51
2023/01/08 12:33:43;;;;;;;3.20;2.90;;;10.40;99.90;;;;;;5014108;28;20041;-52
2023/01/08 12:36:14;;;;;;;4.00;2.45;;;10.40;99.90;;;;;;5017514;28;20405;-54
2023/01/08 12:38:43;;;;;;;2.92;2.63;;;10.40;99.90;;;;;;5033908;28;20079;-55
2023/01/08 12:41:16;;;;;;;5.00;3.25;;;10.40;99.90;;;;;;5025616;28;20033;-51
2023/01/08 12:43:59;;;;;;;4.18;2.50;;;10.50;99.90;;;;;;5013846;28;20040;-52
2023/01/08 12:46:29;;;;;;;5.47;2.60;;;10.50;99.90;;;;;;5014489;28;20026;-52
2023/01/08 12:48:56;;;;;;;4.20;2.72;;;10.50;99.90;;;;;;5014564;28;20088;-55
2023/01/08 12:51:35;;;;;;;3.30;2.78;;;10.50;99.90;;;;;;5014421;28;20096;-54
2023/01/08 12:54:30;;;;;;;4.28;2.80;;;10.50;99.90;;;;;;5013645;28;20022;-51
2023/01/08 12:57:36;;;;;;;5.15;2.65;;;10.40;99.90;;;;;;5014312;28;20022;-53
2023/01/08 13:00:38;;;;;;;3.53;2.53;;;10.40;99.90;;;;;;5014017;28;20383;-55
2023/01/08 13:03:10;;;;;;;3.58;2.75;;;10.40;99.90;;;;;;5000066;28;20073;-50
2023/01/08 13:05:37;;;;;;;2.47;2.30;;;10.40;99.90;;;;;;5013965;28;20041;-55